Time;durP1;ratioP1;P1;durP2;ratioP2;P2;SDS_P1;SDS_P2;PMS_P1;PMS_P2;Temp;Humidity;BMP_temperature;BMP_pressure;BME280_temperature;BME280_humidity;BME280_pressure;Samples;Min_cycle;Max_cycle;Signal;HPM_P1;HPM_P2
2022/06/14 00:00:56;;;;;;;4.18;2.20;;;11.50;99.90;;;;;;5024962;28;20404;-83
2022/06/14 00:03:26;;;;;;;2.55;1.92;;;11.50;99.90;;;;;;4999000;28;20045;-83
2022/06/14 00:05:55;;;;;;;4.15;2.60;;;11.60;99.90;;;;;;5032160;28;20045;-83
2022/06/14 00:08:27;;;;;;;7.95;4.72;;;11.60;99.90;;;;;;5014805;28;20045;-83
2022/06/14 00:10:58;;;;;;;3.53;2.28;;;11.70;99.90;;;;;;5030587;28;20068;-83
2022/06/14 00:13:28;;;;;;;2.42;2.13;;;11.70;99.90;;;;;;5031902;28;20104;-83
2022/06/14 00:15:56;;;;;;;3.35;2.15;;;11.70;99.90;;;;;;5015108;28;20141;-83
2022/06/14 00:18:24;;;;;;;3.42;1.95;;;11.80;99.90;;;;;;5014119;28;20045;-83
2022/06/14 00:20:52;;;;;;;2.70;2.42;;;11.70;99.90;;;;;;5014677;28;20053;-83
2022/06/14 00:23:22;;;;;;;4.20;2.30;;;11.80;99.90;;;;;;4998782;28;20042;-83
2022/06/14 00:25:55;;;;;;;4.65;4.25;;;11.70;99.90;;;;;;5013669;28;20487;-83
2022/06/14 00:28:28;;;;;;;3.22;2.92;;;11.80;99.90;;;;;;5028116;28;20049;-83
2022/06/14 00:31:01;;;;;;;4.50;2.03;;;11.80;99.90;;;;;;5032134;28;20060;-83
2022/06/14 00:33:29;;;;;;;3.03;2.83;;;11.80;99.90;;;;;;5014171;28;20045;-83
2022/06/14 00:36:02;;;;;;;2.25;2.05;;;11.70;99.90;;;;;;5032286;28;20511;-83
2022/06/14 00:38:30;;;;;;;2.85;2.63;;;11.70;99.90;;;;;;5030451;28;20080;-83
2022/06/14 00:41:00;;;;;;;3.60;2.83;;;11.70;99.90;;;;;;4997429;28;20491;-84
2022/06/14 00:43:31;;;;;;;7.27;2.67;;;11.70;99.90;;;;;;5014228;28;20044;-83
2022/06/14 00:46:29;;;;;;;1.95;1.85;;;11.70;99.90;;;;;;4997831;28;20780;-83
2022/06/14 00:49:04;;;;;;;3.08;2.15;;;11.70;99.90;;;;;;4996476;28;20052;-83
2022/06/14 00:51:41;;;;;;;2.75;2.05;;;11.60;99.90;;;;;;5014078;28;20060;-83
2022/06/14 00:54:30;;;;;;;5.07;2.28;;;11.60;99.90;;;;;;4997532;28;20406;-83
2022/06/14 00:57:28;;;;;;;2.33;2.03;;;11.60;99.90;;;;;;4977991;28;20057;-83
2022/06/14 01:00:11;;;;;;;2.67;2.47;;;11.60;99.90;;;;;;4997164;28;20515;-83
2022/06/14 01:02:46;;;;;;;6.32;1.85;;;11.60;99.90;;;;;;5031406;28;20368;-84
2022/06/14 01:05:21;;;;;;;2.50;2.05;;;11.60;99.90;;;;;;5029790;28;20041;-83
2022/06/14 01:07:54;;;;;;;2.63;2.42;;;11.50;99.90;;;;;;5013880;28;20049;-83
2022/06/14 01:10:28;;;;;;;5.60;2.03;;;11.50;99.90;;;;;;5030472;28;20049;-83
2022/06/14 01:13:00;;;;;;;4.55;2.38;;;11.40;99.90;;;;;;5012907;28;20057;-83
2022/06/14 01:15:33;;;;;;;6.38;2.83;;;11.40;99.90;;;;;;5014175;28;20045;-82
2022/06/14 01:18:05;;;;;;;2.42;2.22;;;11.30;99.90;;;;;;5030879;28;20387;-81
2022/06/14 01:20:34;;;;;;;;;;;11.20;99.90;;;;;;5031810;28;20037;-81
2022/06/14 01:23:05;;;;;;;3.50;2.70;;;11.20;99.90;;;;;;5013289;28;19925;-81
2022/06/14 01:25:38;;;;;;;8.85;5.15;;;11.10;99.90;;;;;;5013285;28;20053;-81
2022/06/14 01:28:09;;;;;;;6.78;1.88;;;11.10;99.90;;;;;;5043177;28;20049;-81
2022/06/14 01:30:46;;;;;;;3.08;2.78;;;11.10;99.90;;;;;;5050914;28;20045;-82
2022/06/14 01:33:19;;;;;;;20.83;3.00;;;11.10;99.90;;;;;;5032947;28;20053;-82
2022/06/14 01:35:52;;;;;;;6.53;3.53;;;11.00;99.90;;;;;;5051327;28;20044;-82
2022/06/14 01:38:20;;;;;;;2.70;2.50;;;11.00;99.90;;;;;;5032583;28;20053;-81
2022/06/14 01:41:02;;;;;;;1.92;1.80;;;10.90;99.90;;;;;;5016452;28;20061;-82
2022/06/14 01:44:01;;;;;;;2.42;2.22;;;10.80;99.90;;;;;;5047465;28;20048;-81
2022/06/14 01:46:36;;;;;;;2.92;2.65;;;10.80;99.90;;;;;;5032718;28;20037;-82
2022/06/14 01:52:15;;;;;;;2.35;2.05;;;10.80;99.90;;;;;;5032936;28;20486;-81
2022/06/14 01:54:55;;;;;;;8.07;3.65;;;10.70;99.90;;;;;;5031758;28;20041;-81
2022/06/14 01:57:44;;;;;;;2.65;2.45;;;10.70;99.90;;;;;;5049481;28;20045;-81
2022/06/14 02:00:26;;;;;;;4.20;2.58;;;10.70;99.90;;;;;;5039456;28;20062;-81
2022/06/14 02:05:58;;;;;;;2.70;2.30;;;10.60;99.90;;;;;;5011976;28;20041;-81
2022/06/14 02:08:32;;;;;;;3.70;2.92;;;10.50;99.90;;;;;;5012637;28;20072;-81
2022/06/14 02:31:04;;;;;;;3.00;2.45;;;10.50;99.90;;;;;;5029888;28;20044;-81
2022/06/14 02:35:03;;;;;;;6.65;3.45;;;10.50;99.90;;;;;;5029023;28;20044;-81
2022/06/14 02:37:41;;;;;;;8.40;3.22;;;10.40;99.90;;;;;;5011851;28;20045;-81
2022/06/14 02:40:35;;;;;;;3.05;2.22;;;10.40;99.90;;;;;;4996167;28;20399;-83
2022/06/14 02:43:23;;;;;;;3.17;2.88;;;10.40;99.90;;;;;;4987426;28;20052;-82
2022/06/14 02:46:13;;;;;;;4.88;3.00;;;10.30;99.90;;;;;;4979373;28;20038;-82
2022/06/14 02:49:09;;;;;;;4.18;2.65;;;10.40;99.90;;;;;;4996269;28;20048;-82
2022/06/14 02:52:09;;;;;;;7.55;2.78;;;10.40;99.90;;;;;;5010732;28;20053;-82
2022/06/14 02:56:01;;;;;;;4.90;3.00;;;10.40;99.90;;;;;;4992875;28;20518;-82
2022/06/14 02:59:31;;;;;;;3.33;2.38;;;10.40;99.90;;;;;;4974720;28;20496;-82
2022/06/14 03:02:06;;;;;;;4.18;2.55;;;10.40;99.90;;;;;;4993738;28;20052;-82
2022/06/14 03:04:50;;;;;;;2.65;2.40;;;10.40;99.90;;;;;;5012154;28;20057;-82
2022/06/14 03:07:26;;;;;;;3.88;2.80;;;10.30;99.90;;;;;;5013896;28;20503;-82
2022/06/14 03:09:55;;;;;;;3.40;2.15;;;10.30;99.90;;;;;;5015503;28;20038;-81
2022/06/14 03:12:43;;;;;;;4.03;3.08;;;10.20;99.90;;;;;;4999251;28;20403;-81
2022/06/14 03:15:16;;;;;;;2.75;2.47;;;10.20;99.90;;;;;;5015141;28;20046;-81
2022/06/14 03:17:55;;;;;;;6.82;2.80;;;10.20;99.90;;;;;;5015328;28;20049;-81
2022/06/14 03:20:54;;;;;;;2.38;1.98;;;10.20;99.90;;;;;;5032637;28;20053;-81
2022/06/14 03:23:22;;;;;;;3.67;2.60;;;10.20;99.90;;;;;;5031481;28;20530;-81
2022/06/14 03:26:05;;;;;;;4.07;2.58;;;10.20;99.90;;;;;;5033065;28;20041;-81
2022/06/14 03:29:04;;;;;;;4.38;3.00;;;10.20;99.90;;;;;;5031621;28;20048;-81
2022/06/14 03:32:22;;;;;;;3.47;2.65;;;10.30;99.90;;;;;;5050572;28;20060;-81
2022/06/14 03:37:14;;;;;;;2.25;2.08;;;10.30;99.90;;;;;;5063173;28;20641;-81
2022/06/14 03:42:25;;;;;;;6.40;1.85;;;10.20;99.90;;;;;;5046731;28;20492;-81
2022/06/14 03:47:35;;;;;;;2.63;2.10;;;10.10;99.90;;;;;;5052528;28;20040;-81
2022/06/14 03:51:43;;;;;;;4.28;2.47;;;10.20;99.90;;;;;;5032645;28;20040;-81
2022/06/14 03:56:35;;;;;;;7.78;2.60;;;10.30;99.90;;;;;;5050016;28;20047;-81
2022/06/14 04:01:48;;;;;;;3.42;2.88;;;10.40;99.90;;;;;;5049484;28;20055;-81
2022/06/14 04:06:50;;;;;;;3.08;2.55;;;10.50;99.90;;;;;;5051327;28;20047;-86
2022/06/14 04:11:31;;;;;;;2.43;2.33;;;10.60;99.90;;;;;;5050542;28;20402;-86
2022/06/14 04:15:51;;;;;;;5.60;3.45;;;10.70;99.90;;;;;;5045484;28;20057;-86
2022/06/14 04:18:35;;;;;;;3.08;2.78;;;10.70;99.90;;;;;;5020247;28;20041;-81
2022/06/14 04:21:26;;;;;;;3.05;2.70;;;10.80;99.90;;;;;;5044088;28;20044;-81
2022/06/14 04:24:27;;;;;;;2.75;2.28;;;10.80;99.90;;;;;;5034251;28;20502;-81
2022/06/14 04:32:14;;;;;;;5.80;4.53;;;11.10;99.90;;;;;;5015572;28;20048;-81
2022/06/14 04:48:54;;;;;;;;;;;11.70;99.90;;;;;;5020618;28;20467;-81
2022/06/14 04:57:50;;;;;;;4.43;4.03;;;12.00;99.90;;;;;;5021168;28;20037;-82
2022/06/14 05:02:40;;;;;;;4.90;4.38;;;12.20;99.90;;;;;;5022321;28;20045;-83
2022/06/14 05:07:53;;;;;;;5.22;2.90;;;12.40;99.90;;;;;;5010901;28;20048;-83
2022/06/14 05:12:28;;;;;;;3.17;2.95;;;12.70;99.90;;;;;;5030855;28;20502;-83
2022/06/14 05:15:01;;;;;;;5.10;2.83;;;13.10;99.90;;;;;;4978583;28;20046;-84
2022/06/14 05:17:39;;;;;;;15.70;4.85;;;13.20;99.90;;;;;;5002078;28;20049;-84
2022/06/14 05:20:28;;;;;;;7.28;3.30;;;13.30;99.90;;;;;;5017230;28;20475;-84
2022/06/14 05:23:43;;;;;;;5.45;3.20;;;13.50;99.90;;;;;;5012571;28;20056;-84
2022/06/14 05:26:29;;;;;;;3.75;3.22;;;13.60;99.90;;;;;;4980599;28;20045;-83
2022/06/14 05:29:19;;;;;;;6.45;3.88;;;13.60;99.90;;;;;;5026186;28;20056;-84
2022/06/14 05:32:22;;;;;;;4.65;4.25;;;13.70;99.90;;;;;;4993933;28;20046;-83
2022/06/14 05:35:30;;;;;;;20.70;6.63;;;13.80;99.90;;;;;;5010986;28;20057;-84
2022/06/14 05:38:30;;;;;;;3.83;3.47;;;13.80;99.90;;;;;;5025292;28;20045;-84
2022/06/14 05:41:16;;;;;;;3.70;3.40;;;13.80;99.90;;;;;;4984939;28;20402;-84
2022/06/14 05:44:04;;;;;;;7.07;5.70;;;13.90;99.90;;;;;;4993985;28;20076;-83
2022/06/14 05:46:56;;;;;;;5.18;2.85;;;13.90;99.90;;;;;;5009632;28;20049;-84
2022/06/14 05:49:30;;;;;;;4.40;4.00;;;14.00;99.90;;;;;;5006474;28;20034;-83
2022/06/14 05:52:17;;;;;;;2.60;2.40;;;14.00;99.90;;;;;;4986010;28;20487;-84
2022/06/14 05:55:01;;;;;;;5.93;2.95;;;14.20;99.90;;;;;;5016020;28;20061;-84
2022/06/14 05:57:50;;;;;;;3.00;2.70;;;14.30;99.90;;;;;;5009005;28;20701;-84
2022/06/14 06:00:49;;;;;;;8.43;4.68;;;14.50;99.90;;;;;;5013444;28;20049;-84
2022/06/14 06:03:35;;;;;;;3.63;3.30;;;14.60;99.90;;;;;;5021470;28;20041;-84
2022/06/14 06:07:01;;;;;;;6.95;3.47;;;14.60;99.90;;;;;;4993311;28;20567;-83
2022/06/14 06:09:40;;;;;;;2.67;2.40;;;14.70;99.90;;;;;;4989863;28;20123;-83
2022/06/14 06:12:11;;;;;;;2.85;2.28;;;14.80;99.90;;;;;;5022353;28;20379;-83
2022/06/14 06:14:50;;;;;;;4.40;4.00;;;15.00;99.90;;;;;;5007281;28;20406;-84
2022/06/14 06:17:27;;;;;;;4.88;3.67;;;15.10;99.90;;;;;;5003223;28;20042;-82
2022/06/14 06:20:09;;;;;;;2.80;2.60;;;15.20;99.90;;;;;;4985441;28;20435;-82
2022/06/14 06:23:06;;;;;;;3.47;3.17;;;15.30;99.90;;;;;;5016649;28;20030;-83
2022/06/14 06:25:48;;;;;;;3.83;3.42;;;15.40;99.90;;;;;;5010505;28;20041;-83
2022/06/14 06:28:26;;;;;;;6.00;2.88;;;15.40;99.90;;;;;;5015588;28;20049;-83
2022/06/14 06:31:18;;;;;;;3.53;3.00;;;15.50;99.90;;;;;;5030014;28;20511;-82
2022/06/14 06:33:49;;;;;;;4.05;2.30;;;15.50;99.90;;;;;;5027295;28;20048;-82
2022/06/14 06:36:40;;;;;;;4.95;2.70;;;15.40;99.90;;;;;;5030324;28;20049;-82
2022/06/14 06:39:24;;;;;;;4.38;2.38;;;15.50;99.90;;;;;;5029613;28;20080;-82
2022/06/14 06:41:57;;;;;;;4.07;3.17;;;15.70;99.90;;;;;;5028302;28;20060;-81
2022/06/14 06:44:34;;;;;;;11.85;3.05;;;15.90;99.90;;;;;;5029284;28;20061;-82
2022/06/14 06:47:09;;;;;;;8.57;3.67;;;16.00;99.90;;;;;;5011785;28;20045;-82
2022/06/14 06:49:57;;;;;;;3.05;2.75;;;16.00;99.90;;;;;;5029691;28;20052;-81
2022/06/14 06:52:50;;;;;;;3.65;3.22;;;15.90;99.90;;;;;;4999893;28;20057;-81
2022/06/14 06:55:29;;;;;;;4.60;4.20;;;15.90;99.90;;;;;;4998736;28;20049;-84
2022/06/14 06:58:01;;;;;;;3.22;3.00;;;15.90;99.90;;;;;;5009592;28;20046;-82
2022/06/14 07:00:32;;;;;;;5.10;4.63;;;16.10;99.90;;;;;;5010384;28;20388;-82
2022/06/14 07:03:15;;;;;;;16.35;3.90;;;16.30;99.90;;;;;;5004589;28;20380;-83
2022/06/14 07:05:51;;;;;;;7.00;4.55;;;16.40;99.90;;;;;;5028974;28;20037;-82
2022/06/14 07:08:27;;;;;;;5.85;4.15;;;16.50;99.90;;;;;;5028425;28;20064;-82
2022/06/14 07:10:56;;;;;;;7.70;3.60;;;16.60;99.90;;;;;;5011206;28;20042;-82
2022/06/14 07:13:27;;;;;;;8.70;4.20;;;16.70;99.90;;;;;;5028124;28;20049;-83
2022/06/14 07:16:01;;;;;;;3.80;3.42;;;16.70;99.90;;;;;;4996165;28;20049;-83
2022/06/14 07:18:46;;;;;;;4.18;3.00;;;16.90;99.90;;;;;;5027868;28;20033;-83
2022/06/14 07:21:23;;;;;;;3.78;3.20;;;17.00;99.90;;;;;;5019148;28;20418;-86
2022/06/14 07:27:45;;;;;;;7.75;3.67;;;17.00;99.90;;;;;;4991811;28;20041;-85
2022/06/14 07:30:20;;;;;;;3.67;3.28;;;17.20;99.90;;;;;;4995700;28;20054;-83
2022/06/14 07:32:53;;;;;;;9.27;4.93;;;17.20;99.90;;;;;;5029943;28;20060;-86
2022/06/14 07:35:37;;;;;;;3.40;2.75;;;17.20;99.90;;;;;;5011291;28;20057;-85
2022/06/14 07:38:37;;;;;;;6.47;3.78;;;17.40;99.90;;;;;;5026999;28;20088;-86
2022/06/14 07:41:43;;;;;;;4.95;3.08;;;17.60;99.90;;;;;;5018708;28;20053;-86
2022/06/14 07:44:17;;;;;;;4.30;3.88;;;17.70;99.90;;;;;;5029893;28;20053;-86
2022/06/14 07:47:02;;;;;;;13.20;6.28;;;17.80;99.90;;;;;;5028930;28;20045;-84
2022/06/14 07:49:43;;;;;;;3.67;3.47;;;17.80;99.90;;;;;;5009076;28;20498;-84
2022/06/14 07:53:13;;;;;;;8.57;3.95;;;17.80;99.90;;;;;;5015837;28;20054;-81
2022/06/14 07:55:47;;;;;;;;;;;17.90;99.90;;;;;;4933963;29;20043;-86
2022/06/14 07:58:24;;;;;;;6.85;3.85;;;18.10;99.90;;;;;;4934695;28;19934;-85
2022/06/14 08:01:09;;;;;;;4.28;2.20;;;18.30;99.90;;;;;;4998920;28;20049;-86
2022/06/14 08:04:13;;;;;;;7.50;3.00;;;18.10;99.90;;;;;;5030421;28;20064;-85
2022/06/14 08:06:48;;;;;;;7.00;4.25;;;18.10;99.90;;;;;;4997803;28;20041;-81
2022/06/14 08:09:22;;;;;;;3.92;3.55;;;18.20;99.90;;;;;;5031436;28;20041;-80
2022/06/14 08:11:59;;;;;;;7.45;4.32;;;18.30;99.90;;;;;;5032010;28;20045;-81
2022/06/14 08:14:39;;;;;;;2.78;2.13;;;18.20;99.90;;;;;;5029763;28;20628;-80
2022/06/14 08:17:09;;;;;;;3.83;2.33;;;18.30;99.90;;;;;;5014761;28;20045;-81
2022/06/14 08:19:44;;;;;;;12.02;3.70;;;18.40;99.90;;;;;;5015239;28;20042;-83
2022/06/14 08:22:25;;;;;;;3.45;3.13;;;18.50;99.90;;;;;;5014194;28;20045;-82
2022/06/14 08:25:00;;;;;;;5.13;2.78;;;18.60;99.90;;;;;;5030637;28;20049;-81
2022/06/14 08:27:38;;;;;;;4.25;2.72;;;18.60;99.90;;;;;;5014411;28;20053;-82
2022/06/14 08:30:26;;;;;;;7.03;3.88;;;18.70;99.90;;;;;;5032212;28;20753;-81
2022/06/14 08:33:04;;;;;;;2.63;2.42;;;18.80;99.90;;;;;;5032052;28;20042;-81
2022/06/14 08:35:35;;;;;;;7.90;2.67;;;18.80;99.90;;;;;;5031596;28;20046;-81
2022/06/14 08:38:15;;;;;;;4.40;3.25;;;18.60;99.90;;;;;;5031504;28;20524;-81
2022/06/14 08:41:29;;;;;;;5.13;2.70;;;18.40;99.90;;;;;;5014310;28;20046;-82
2022/06/14 08:44:06;;;;;;;6.70;4.30;;;18.40;99.90;;;;;;5029950;28;20061;-81
2022/06/14 08:46:45;;;;;;;3.83;3.47;;;18.70;99.90;;;;;;5031389;28;20040;-80
2022/06/14 08:49:28;;;;;;;5.35;2.55;;;18.80;99.90;;;;;;5031020;28;20037;-79
2022/06/14 08:52:21;;;;;;;4.88;3.00;;;18.90;99.90;;;;;;5011911;28;20045;-78
2022/06/14 08:55:03;;;;;;;4.53;3.20;;;18.60;99.90;;;;;;5013118;28;20483;-84
2022/06/14 08:57:38;;;;;;;6.20;3.95;;;18.50;99.90;;;;;;5012215;28;20499;-82
2022/06/14 09:00:34;;;;;;;3.47;2.60;;;18.60;99.90;;;;;;4980690;28;20050;-82
2022/06/14 09:03:26;;;;;;;8.30;4.25;;;18.80;99.90;;;;;;5025504;28;20045;-84
2022/06/14 09:06:32;;;;;;;4.30;2.97;;;18.80;99.90;;;;;;5031348;28;20046;-84
2022/06/14 09:09:44;;;;;;;2.50;2.38;;;18.70;99.90;;;;;;5032667;28;20064;-83
2022/06/14 09:12:35;;;;;;;12.07;3.25;;;19.00;99.90;;;;;;5032878;28;20064;-88
2022/06/14 09:15:36;;;;;;;5.80;2.67;;;19.20;99.90;;;;;;5050601;28;20052;-78
2022/06/14 09:18:11;;;;;;;;;;;19.30;99.90;;;;;;5033462;28;20667;-76
2022/06/14 09:21:03;;;;;;;3.50;2.58;;;19.30;99.90;;;;;;5051439;28;19948;-82
2022/06/14 09:24:09;;;;;;;5.13;3.83;;;19.30;99.90;;;;;;5019698;28;20060;-88
2022/06/14 09:26:45;;;;;;;10.05;3.72;;;18.90;99.90;;;;;;4968677;28;20052;-78
2022/06/14 09:29:32;;;;;;;3.15;2.40;;;19.10;99.90;;;;;;5050310;28;20044;-75
2022/06/14 09:32:19;;;;;;;3.33;2.42;;;19.20;99.90;;;;;;5051280;28;20059;-74
2022/06/14 09:35:06;;;;;;;5.95;2.28;;;19.20;99.90;;;;;;5050609;28;20051;-76
2022/06/14 09:38:01;;;;;;;3.20;2.50;;;19.20;99.90;;;;;;5029707;28;20498;-76
2022/06/14 09:41:33;;;;;;;3.97;2.72;;;19.40;99.90;;;;;;5061093;28;20037;-76
2022/06/14 09:45:13;;;;;;;6.40;2.40;;;19.60;99.90;;;;;;5027666;28;20053;-77
2022/06/14 09:57:17;;;;;;;3.30;2.40;;;19.70;99.90;;;;;;5033545;28;20048;-81
2022/06/14 10:00:32;;;;;;;7.85;1.98;;;19.60;99.90;;;;;;5052327;28;20056;-82
2022/06/14 10:03:36;;;;;;;6.25;3.08;;;19.70;99.90;;;;;;5019773;28;20778;-80
2022/06/14 10:06:54;;;;;;;7.13;3.25;;;19.90;99.90;;;;;;5021694;28;20056;-79
2022/06/14 10:09:37;;;;;;;2.40;2.20;;;19.90;99.90;;;;;;5026252;28;20040;-78
2022/06/14 10:12:18;;;;;;;4.13;1.83;;;20.00;99.90;;;;;;5032126;28;20052;-78
2022/06/14 10:14:57;;;;;;;6.27;2.57;;;20.00;99.90;;;;;;5050142;28;20051;-79
2022/06/14 10:22:04;;;;;;;3.53;2.03;;;20.00;99.90;;;;;;5049790;28;20029;-80
2022/06/14 10:24:58;;;;;;;7.28;3.03;;;20.10;99.90;;;;;;5050701;28;20057;-81
2022/06/14 10:28:11;;;;;;;2.40;2.10;;;20.10;99.90;;;;;;4978356;28;20054;-82
2022/06/14 10:31:07;;;;;;;3.65;2.90;;;20.10;99.90;;;;;;4950219;28;20046;-82
2022/06/14 10:34:08;;;;;;;4.93;3.25;;;20.00;99.90;;;;;;4983507;28;20050;-79
2022/06/14 10:36:55;;;;;;;;;;;19.80;99.90;;;;;;4996729;28;20041;-82
2022/06/14 10:40:27;;;;;;;7.57;2.60;;;19.60;99.90;;;;;;4991077;28;19932;-80
2022/06/14 10:43:03;;;;;;;5.43;3.15;;;19.90;99.90;;;;;;4983089;28;20058;-80
2022/06/14 10:50:29;;;;;;;4.72;2.83;;;20.10;99.90;;;;;;4987840;28;20042;-79
2022/06/14 10:53:24;;;;;;;5.63;3.10;;;20.10;99.90;;;;;;4987777;28;20093;-82
2022/06/14 10:56:13;;;;;;;3.88;3.08;;;20.00;99.90;;;;;;4988101;28;20050;-82
2022/06/14 10:59:48;;;;;;;4.18;2.70;;;19.90;99.90;;;;;;5016528;28;20046;-83
2022/06/14 11:11:49;;;;;;;3.35;2.28;;;20.50;99.90;;;;;;5022732;28;20048;-79
2022/06/14 11:19:36;;;;;;;3.42;2.95;;;20.60;99.90;;;;;;5035030;28;19928;-79
2022/06/14 11:23:07;;;;;;;5.55;2.97;;;20.80;99.90;;;;;;4948347;29;20059;-79
2022/06/14 11:25:50;;;;;;;3.10;2.47;;;20.80;99.90;;;;;;4939523;28;20047;-79
2022/06/14 11:28:56;;;;;;;8.27;2.97;;;20.80;99.90;;;;;;5046509;28;20045;-79
2022/06/14 11:32:28;;;;;;;7.30;2.70;;;20.70;99.90;;;;;;5052872;28;20047;-79
2022/06/14 11:35:50;;;;;;;2.30;2.13;;;20.50;99.90;;;;;;5057689;28;20041;-78
2022/06/14 11:43:34;;;;;;;2.97;2.67;;;20.60;99.90;;;;;;5058512;28;20047;-78
2022/06/14 11:56:54;;;;;;;2.20;2.00;;;20.90;99.90;;;;;;5056726;28;20043;-78
2022/06/14 11:59:58;;;;;;;5.95;2.75;;;20.90;99.90;;;;;;5048653;28;20041;-79
2022/06/14 12:03:08;;;;;;;3.72;3.03;;;20.80;99.90;;;;;;5018852;28;20068;-80
2022/06/14 12:05:55;;;;;;;4.70;2.83;;;20.70;99.90;;;;;;5031822;28;20394;-83
2022/06/14 12:13:47;;;;;;;3.05;2.65;;;20.90;99.90;;;;;;5032381;28;20052;-80
2022/06/14 12:26:34;;;;;;;6.97;2.47;;;21.30;99.90;;;;;;5046888;28;20041;-82
2022/06/14 12:31:41;;;;;;;5.50;2.28;;;21.20;99.90;;;;;;4974131;28;20090;-77
2022/06/14 12:41:01;;;;;;;5.70;2.88;;;21.20;99.90;;;;;;4990757;28;20072;-78
2022/06/14 12:49:29;;;;;;;8.85;2.90;;;21.20;99.90;;;;;;5032627;28;20041;-83
2022/06/14 13:01:31;;;;;;;7.95;3.08;;;21.20;99.90;;;;;;5011136;28;20060;-83
2022/06/14 13:32:14;;;;;;;3.08;2.88;;;21.70;99.90;;;;;;5026322;28;20044;-81
2022/06/14 13:35:17;;;;;;;4.00;1.90;;;21.80;99.90;;;;;;5028619;28;20521;-81
2022/06/14 13:52:38;;;;;;;6.95;2.30;;;21.70;99.50;;;;;;5028636;28;20034;-84
2022/06/14 14:00:08;;;;;;;3.08;2.78;;;21.70;98.10;;;;;;4995891;28;20042;-86
2022/06/14 14:02:47;;;;;;;2.30;2.10;;;21.80;98.00;;;;;;5026302;28;20052;-82
2022/06/14 14:05:40;;;;;;;3.90;2.83;;;21.70;98.30;;;;;;5018120;28;20397;-80
2022/06/14 14:08:29;;;;;;;2.45;2.00;;;21.70;98.00;;;;;;5012806;28;20053;-80
2022/06/14 14:11:24;;;;;;;4.75;2.28;;;21.70;98.20;;;;;;5029811;28;20046;-82
2022/06/14 14:14:01;;;;;;;2.20;1.95;;;21.80;99.50;;;;;;5047972;28;20517;-82
2022/06/14 14:16:36;;;;;;;6.07;2.83;;;22.00;97.90;;;;;;5050534;28;20418;-80
2022/06/14 14:19:13;;;;;;;3.08;2.38;;;22.00;98.70;;;;;;5049599;28;20041;-80
2022/06/14 14:21:57;;;;;;;1.80;1.70;;;22.10;99.50;;;;;;5049822;28;20033;-83
2022/06/14 14:24:36;;;;;;;2.90;2.00;;;22.20;99.50;;;;;;5050634;28;20048;-81
2022/06/14 14:27:39;;;;;;;5.68;1.90;;;22.10;98.20;;;;;;5049460;28;20529;-81
2022/06/14 14:30:29;;;;;;;3.42;2.75;;;22.00;97.10;;;;;;5009895;28;20068;-79
2022/06/14 14:33:07;;;;;;;;;;;22.10;97.80;;;;;;5050109;28;20053;-82
2022/06/14 14:35:39;;;;;;;5.05;3.08;;;22.10;97.70;;;;;;5049016;28;19928;-80
2022/06/14 14:38:10;;;;;;;2.58;2.38;;;22.20;98.80;;;;;;5044834;28;20049;-79
2022/06/14 14:43:46;;;;;;;1.90;1.80;;;22.10;99.10;;;;;;5015388;28;20052;-82
2022/06/14 14:46:23;;;;;;;2.22;2.00;;;22.10;99.00;;;;;;5028675;28;20045;-81
2022/06/14 14:48:57;;;;;;;3.00;2.72;;;22.30;99.90;;;;;;5049630;28;20048;-81
2022/06/14 14:51:38;;;;;;;1.75;1.65;;;22.40;99.80;;;;;;5045387;28;20040;-81
2022/06/14 14:54:38;;;;;;;3.00;2.53;;;22.50;98.30;;;;;;5032372;28;20064;-82
2022/06/14 14:57:26;;;;;;;3.35;2.20;;;22.50;99.20;;;;;;5049184;28;20037;-82
2022/06/14 15:00:06;;;;;;;5.82;2.65;;;22.50;98.40;;;;;;5048342;28;20053;-81
2022/06/14 15:05:53;;;;;;;2.97;2.33;;;22.50;95.80;;;;;;5056064;28;20049;-81
2022/06/14 15:08:52;;;;;;;2.67;1.92;;;22.40;98.40;;;;;;5047423;28;20045;-85
2022/06/14 15:11:27;;;;;;;4.03;2.13;;;22.40;96.30;;;;;;5026807;28;20053;-82
2022/06/14 15:13:59;;;;;;;2.42;2.28;;;22.40;97.60;;;;;;5052920;28;20398;-81
2022/06/14 15:16:45;;;;;;;4.00;2.58;;;22.30;97.20;;;;;;5052692;28;20037;-80
2022/06/14 15:22:29;;;;;;;5.95;3.22;;;22.30;98.20;;;;;;5032592;28;20041;-80
2022/06/14 15:25:05;;;;;;;6.53;2.55;;;22.40;99.90;;;;;;5052703;28;20045;-80
2022/06/14 15:27:35;;;;;;;4.65;2.58;;;22.50;98.30;;;;;;5053208;28;20044;-80
2022/06/14 15:30:04;;;;;;;2.05;1.63;;;22.50;97.60;;;;;;5052294;28;20747;-79
2022/06/14 15:32:34;;;;;;;7.25;3.25;;;22.50;93.80;;;;;;5054030;28;20386;-78
2022/06/14 15:35:21;;;;;;;4.60;2.22;;;22.40;95.60;;;;;;5027392;28;20044;-79
2022/06/14 15:38:17;;;;;;;1.98;1.88;;;22.50;97.00;;;;;;5052294;28;20064;-79
2022/06/14 15:40:45;;;;;;;4.20;3.22;;;22.30;96.40;;;;;;5051944;28;20060;-81
2022/06/14 15:43:26;;;;;;;3.83;3.10;;;22.40;95.90;;;;;;5034210;28;20041;-80
2022/06/14 15:45:57;;;;;;;4.03;2.08;;;22.40;95.60;;;;;;5050964;28;20055;-80
2022/06/14 15:48:30;;;;;;;;;;;22.40;96.80;;;;;;5033969;28;20052;-80
2022/06/14 15:51:05;;;;;;;5.10;2.40;;;22.50;96.80;;;;;;5049407;28;19935;-80
2022/06/14 15:53:52;;;;;;;2.88;2.67;;;22.50;95.10;;;;;;5032835;28;20045;-77
2022/06/14 15:56:26;;;;;;;30.67;3.63;;;22.60;96.00;;;;;;5051117;28;20429;-77
2022/06/14 15:59:28;;;;;;;10.30;2.92;;;22.60;96.60;;;;;;5051343;28;20056;-80
2022/06/14 16:01:58;;;;;;;6.10;2.40;;;22.60;99.70;;;;;;5009244;28;20052;-76
2022/06/14 16:04:34;;;;;;;10.23;2.35;;;22.60;95.10;;;;;;5031919;28;20041;-76
2022/06/14 16:07:10;;;;;;;5.82;2.45;;;22.60;96.10;;;;;;5048162;28;20053;-76
2022/06/14 16:09:46;;;;;;;4.03;1.90;;;22.60;96.20;;;;;;5047633;28;20049;-78
2022/06/14 16:12:28;;;;;;;6.78;2.45;;;22.50;95.40;;;;;;5048618;28;20124;-77
2022/06/14 16:15:07;;;;;;;5.72;3.10;;;22.50;95.50;;;;;;5050520;28;20057;-77
2022/06/14 16:17:43;;;;;;;2.70;1.77;;;22.60;97.40;;;;;;5031473;28;20041;-76
2022/06/14 16:20:17;;;;;;;3.83;2.33;;;22.70;95.40;;;;;;5051511;28;20041;-77
2022/06/14 16:22:46;;;;;;;7.93;3.08;;;22.60;95.70;;;;;;5052151;28;20037;-81
2022/06/14 16:25:33;;;;;;;3.70;2.80;;;22.60;95.80;;;;;;5051379;28;20359;-77
2022/06/14 16:28:13;;;;;;;4.15;2.42;;;22.50;96.10;;;;;;5040399;28;20056;-76
2022/06/14 16:30:49;;;;;;;1.40;1.30;;;22.60;95.20;;;;;;5051656;28;20048;-76
2022/06/14 16:33:25;;;;;;;4.28;3.00;;;22.60;97.50;;;;;;5023120;28;20045;-77
2022/06/14 16:36:15;;;;;;;2.38;2.13;;;22.60;96.60;;;;;;5055753;28;20049;-77
2022/06/14 16:38:44;;;;;;;;;;;22.80;98.20;;;;;;5051178;28;20045;-77
2022/06/14 16:41:49;;;;;;;5.00;2.38;;;22.80;95.50;;;;;;5050254;28;19920;-76
2022/06/14 16:44:40;;;;;;;3.42;2.10;;;22.80;95.20;;;;;;5032656;28;20405;-76
2022/06/14 16:47:09;;;;;;;3.25;1.73;;;22.80;96.20;;;;;;5050010;28;20677;-78
2022/06/14 16:50:01;;;;;;;5.57;2.17;;;22.70;94.80;;;;;;5051371;28;20100;-77
2022/06/14 16:52:47;;;;;;;13.70;2.45;;;22.60;96.00;;;;;;5057641;28;20052;-76
2022/06/14 16:55:25;;;;;;;1.63;1.52;;;22.60;96.30;;;;;;5062260;28;20059;-77
2022/06/14 16:58:11;;;;;;;3.58;2.38;;;22.60;95.30;;;;;;5049403;28;20049;-77
2022/06/14 17:00:51;;;;;;;3.45;2.00;;;22.60;94.90;;;;;;5051880;28;20049;-76
2022/06/14 17:03:54;;;;;;;3.15;1.98;;;22.60;95.70;;;;;;5049850;28;20108;-77
2022/06/14 17:07:01;;;;;;;3.33;2.55;;;22.50;97.00;;;;;;5032739;28;20037;-76
2022/06/14 17:09:47;;;;;;;3.00;2.78;;;22.70;97.30;;;;;;5032964;28;20041;-77
2022/06/14 17:12:23;;;;;;;6.63;1.92;;;22.80;97.00;;;;;;5032310;28;20049;-78
2022/06/14 17:15:08;;;;;;;2.83;2.17;;;22.70;95.20;;;;;;5021377;28;20045;-86
2022/06/14 17:18:07;;;;;;;5.85;3.08;;;22.60;94.80;;;;;;5004528;28;20491;-87
2022/06/14 17:20:41;;;;;;;3.55;2.13;;;22.50;94.80;;;;;;5015350;28;20053;-86
2022/06/14 17:23:11;;;;;;;11.85;2.42;;;22.50;96.50;;;;;;5006208;28;20610;-84
2022/06/14 17:31:47;;;;;;;4.43;1.90;;;22.70;95.90;;;;;;5022222;28;20046;-82
2022/06/14 17:34:21;;;;;;;1.88;1.77;;;22.60;95.60;;;;;;5027107;28;20188;-81
2022/06/14 17:37:08;;;;;;;2.75;1.95;;;22.60;95.20;;;;;;5014125;28;20060;-81
2022/06/14 17:39:54;;;;;;;2.15;1.85;;;22.40;95.30;;;;;;5043284;28;20050;-82
2022/06/14 17:42:27;;;;;;;3.42;2.33;;;22.40;95.10;;;;;;5011062;28;20487;-81
2022/06/14 17:45:00;;;;;;;2.42;2.10;;;22.40;95.00;;;;;;5030618;28;20482;-81
2022/06/14 17:47:36;;;;;;;4.00;2.53;;;22.20;95.40;;;;;;5050482;28;20045;-81
2022/06/14 17:50:24;;;;;;;3.28;1.60;;;22.20;95.50;;;;;;5032954;28;20395;-82
2022/06/14 17:53:15;;;;;;;5.03;2.50;;;22.30;96.10;;;;;;5049367;28;20048;-82
2022/06/14 17:56:02;;;;;;;1.92;1.83;;;22.20;95.00;;;;;;5045505;28;20049;-83
2022/06/14 17:58:59;;;;;;;2.85;1.92;;;22.20;95.20;;;;;;5049317;28;20473;-83
2022/06/14 18:01:55;;;;;;;2.47;2.33;;;22.10;95.90;;;;;;5032920;28;20427;-83
2022/06/14 18:04:45;;;;;;;2.30;2.10;;;22.00;96.20;;;;;;5050202;28;20053;-86
2022/06/14 18:07:15;;;;;;;3.50;1.83;;;21.90;96.20;;;;;;5031186;28;20041;-82
2022/06/14 18:09:57;;;;;;;5.68;2.47;;;21.80;97.00;;;;;;5050401;28;20785;-82